Observation data for Goodlett on 05/16/2018      Previous  Date  Next       Current Mesonet Observations  Soil Data  Daily Summary Page  Observations in Plain Language
KGDS 160500Z 18021G28KT 19/14 A2992 RMK A01 T01890136  RH  073%=      5-min Rain = 0
KGDS 160505Z 19024G31KT 20/13 A2993 RMK A01 T01980133  RH  067%=      5-min Rain = 0
KGDS 160510Z 18027G34KT 20/13 A2991 RMK A01 T01990130  RH  066%=      5-min Rain = 0
KGDS 160515Z 17021G26KT 21/12 A2992 RMK A01 T02070124  RH  060%=      5-min Rain = 0
KGDS 160520Z 15017KT 21/13 A2989 RMK A01 T02110126  RH  059%=      5-min Rain = 0
KGDS 160525Z 15019KT 22/12 A2988 RMK A01 T02160118  RH  055%=      5-min Rain = 0
KGDS 160530Z 13019G26KT 22/11 A2986 RMK A01 T02220113  RH  051%=      5-min Rain = 0
KGDS 160535Z 13017G23KT 23/11 A2984 RMK A01 T02320106  RH  046%=      5-min Rain = 0
KGDS 160540Z 11013G19KT 23/11 A2982 RMK A01 T02290109  RH  048%=      5-min Rain = 0
KGDS 160545Z 14013KT 22/12 A2982 RMK A01 T02230118  RH  052%=      5-min Rain = 0
KGDS 160550Z 16019G28KT 22/12 A298 RMK A01 T02210118  RH  053%=      5-min Rain = 0
KGDS 160555Z 14019G29KT 22/12 A2979 RMK A01 T02160118  RH  055%=      5-min Rain = 0
KGDS 160600Z 19011KT 22/12 A2982 RMK A01 T02160118  RH  055%=      5-min Rain = 0
KGDS 160605Z 19013KT 22/12 A2984 RMK A01 T02160118  RH  055%=      5-min Rain = 0
KGDS 160610Z 19010G15KT 22/11 A2985 RMK A01 T02200113  RH  052%=      5-min Rain = 0
KGDS 160615Z 16011G17KT 23/10 A2986 RMK A01 T02280104  RH  046%=      5-min Rain = 0
KGDS 160620Z 28004G17KT 23/10 A2988 RMK A01 T02340098  RH  043%=      5-min Rain = 0
KGDS 160625Z 31015G22KT 22/12 A2989 RMK A01 T02210120  RH  054%=      5-min Rain = 0
KGDS 160630Z 30021G26KT 21/13 A299 RMK A01 T02130128  RH  060%=      5-min Rain = 0
KGDS 160635Z 31024G31KT 21/13 A2992 RMK A01 T02060133  RH  064%=      5-min Rain = 0
KGDS 160640Z 30027G35KT 20/13 A2994 RMK A01 T02030133  RH  066%=      5-min Rain = 0
KGDS 160645Z 30025G33KT 20/13 A2995 RMK A01 T02030133  RH  065%=      5-min Rain = 0
KGDS 160650Z 30022G29KT 20/13 A2996 RMK A01 T02020133  RH  066%=      5-min Rain = 0
KGDS 160655Z 30018G23KT 20/13 A2996 RMK A01 T02000134  RH  067%=      5-min Rain = 0
KGDS 160700Z 30017KT 20/14 A2996 RMK A01 T01980135  RH  068%=      5-min Rain = 0
KGDS 160705Z 30015KT 20/14 A2997 RMK A01 T01960135  RH  069%=      5-min Rain = 0
KGDS 160710Z 31014KT 19/14 A2998 RMK A01 T01940136  RH  071%=      5-min Rain = 0
KGDS 160715Z 31015KT 19/14 A2998 RMK A01 T01900139  RH  074%=      5-min Rain = 0
KGDS 160720Z 31015KT 19/14 A2998 RMK A01 T01860142  RH  077%=      5-min Rain = 0
KGDS 160725Z 31013KT 18/14 A2998 RMK A01 T01840144  RH  079%=      5-min Rain = 0
KGDS 160730Z 32012KT 18/15 A2998 RMK A01 T01830145  RH  080%=      5-min Rain = 0
KGDS 160735Z 33012KT 18/15 A2997 RMK A01 T01840145  RH  080%=      5-min Rain = 0
KGDS 160740Z 33009KT 18/15 A2996 RMK A01 T01820145  RH  081%=      5-min Rain = 0
KGDS 160745Z 34009KT 18/15 A2996 RMK A01 T01800145  RH  082%=      5-min Rain = 0
KGDS 160750Z 36010KT 18/15 A2995 RMK A01 T01800145  RH  082%=      5-min Rain = 0
KGDS 160755Z 36011KT 18/15 A2995 RMK A01 T01780145  RH  083%=      5-min Rain = 0
KGDS 160800Z 35008KT 18/15 A2995 RMK A01 T01780145  RH  083%=      5-min Rain = 0
KGDS 160805Z 35009KT 18/15 A2995 RMK A01 T01770145  RH  083%=      5-min Rain = 0
KGDS 160810Z 34008KT 18/15 A2996 RMK A01 T01780145  RH  083%=      5-min Rain = 0
KGDS 160815Z 34009KT 18/15 A2996 RMK A01 T01770146  RH  084%=      5-min Rain = 0
KGDS 160820Z 34009KT 18/15 A2996 RMK A01 T01780146  RH  084%=      5-min Rain = 0
KGDS 160825Z 35009KT 18/15 A2996 RMK A01 T01760146  RH  084%=      5-min Rain = 0
KGDS 160830Z 36008KT 18/15 A2996 RMK A01 T01750146  RH  084%=      5-min Rain = 0
KGDS 160835Z 36008KT 18/15 A2995 RMK A01 T01750146  RH  085%=      5-min Rain = 0
KGDS 160840Z 00007KT 18/15 A2995 RMK A01 T01750146  RH  085%=      5-min Rain = 0
KGDS 160845Z 02008KT 17/15 A2995 RMK A01 T01730145  RH  085%=      5-min Rain = 0
KGDS 160850Z 01006KT 17/15 A2995 RMK A01 T01720146  RH  086%=      5-min Rain = 0
KGDS 160855Z 35005KT 17/15 A2995 RMK A01 T01720145  RH  086%=      5-min Rain = 0
KGDS 160900Z 35007KT 17/14 A2995 RMK A01 T01700144  RH  087%=      5-min Rain = 0
KGDS 160905Z 01007KT 17/15 A2995 RMK A01 T01690145  RH  087%=      5-min Rain = 0
KGDS 160910Z 34005KT 17/14 A2995 RMK A01 T01690144  RH  087%=      5-min Rain = 0
KGDS 160915Z 32005KT 17/15 A2994 RMK A01 T01690145  RH  088%=      5-min Rain = 0
KGDS 160920Z 30005KT 17/15 A2994 RMK A01 T01680145  RH  088%=      5-min Rain = 0
KGDS 160925Z 32004KT 17/15 A2994 RMK A01 T01680145  RH  088%=      5-min Rain = 0
KGDS 160930Z 35004KT 17/14 A2995 RMK A01 T01660143  RH  088%=      5-min Rain = 0
KGDS 160935Z 27002KT 17/14 A2996 RMK A01 T01650142  RH  088%=      5-min Rain = 0
KGDS 160940Z 22004KT 17/14 A2996 RMK A01 T01650144  RH  089%=      5-min Rain = 0
KGDS 160945Z 22001KT 17/14 A2996 RMK A01 T01660144  RH  089%=      5-min Rain = 0
KGDS 160950Z 27003KT 17/14 A2997 RMK A01 T01660144  RH  089%=      5-min Rain = 0
KGDS 160955Z 30004KT 17/14 A2997 RMK A01 T01650143  RH  089%=      5-min Rain = 0
KGDS 161000Z 31007KT 16/14 A2998 RMK A01 T01640143  RH  089%=      5-min Rain = 0
KGDS 161005Z 31007KT 16/14 A2998 RMK A01 T01630142  RH  089%=      5-min Rain = 0
KGDS 161010Z 32005KT 16/14 A2998 RMK A01 T01620142  RH  089%=      5-min Rain = 0
KGDS 161015Z 33004KT 16/14 A2998 RMK A01 T01620141  RH  089%=      5-min Rain = 0
KGDS 161020Z 32004KT 16/14 A2999 RMK A01 T01620142  RH  090%=      5-min Rain = 0
KGDS 161025Z 29003KT 16/14 A2999 RMK A01 T01620142  RH  090%=      5-min Rain = 0
KGDS 161030Z 30003KT 16/14 A2999 RMK A01 T01620142  RH  090%=      5-min Rain = 0
KGDS 161035Z 28004KT 16/14 A2999 RMK A01 T01610141  RH  090%=      5-min Rain = 0
KGDS 161040Z 26004KT 16/14 A2998 RMK A01 T01600141  RH  090%=      5-min Rain = 0
KGDS 161045Z 24004KT 16/14 A2998 RMK A01 T01610142  RH  090%=      5-min Rain = 0
KGDS 161050Z 24003KT 16/14 A2998 RMK A01 T01600141  RH  090%=      5-min Rain = 0
KGDS 161055Z 24004KT 16/14 A2998 RMK A01 T01600141  RH  091%=      5-min Rain = 0
KGDS 161100Z 24005KT 16/14 A2998 RMK A01 T01590141  RH  091%=      5-min Rain = 0
KGDS 161105Z 24005KT 16/14 A2998 RMK A01 T01590141  RH  091%=      5-min Rain = 0
KGDS 161110Z 22005KT 16/14 A2997 RMK A01 T01590142  RH  091%=      5-min Rain = 0
KGDS 161115Z 23005KT 16/14 A2997 RMK A01 T01590142  RH  091%=      5-min Rain = 0
KGDS 161120Z 22003KT 16/14 A2996 RMK A01 T01600143  RH  091%=      5-min Rain = 0
KGDS 161125Z 22003KT 16/14 A2995 RMK A01 T01600143  RH  091%=      5-min Rain = 0
KGDS 161130Z 23004KT 16/14 A2995 RMK A01 T01600143  RH  091%=      5-min Rain = 0
KGDS 161135Z 22004KT 16/14 A2994 RMK A01 T01600143  RH  091%=      5-min Rain = 0
KGDS 161140Z 23004KT 16/14 A2994 RMK A01 T01600143  RH  091%=      5-min Rain = 0
KGDS 161145Z 22006KT 16/14 A2994 RMK A01 T01600143  RH  091%=      5-min Rain = 0
KGDS 161150Z 23006KT 16/14 A2994 RMK A01 T01590142  RH  091%=      5-min Rain = 0
KGDS 161155Z 23006KT 16/14 A2994 RMK A01 T01590143  RH  092%=      5-min Rain = 0
KGDS 161200Z 24005KT 16/14 A2995 RMK A01 T01600143  RH  091%=      5-min Rain = 0
KGDS 161205Z 24006KT 16/14 A2996 RMK A01 T01600143  RH  091%=      5-min Rain = 0
KGDS 161210Z 24007KT 16/14 A2997 RMK A01 T01610144  RH  091%=      5-min Rain = 0
KGDS 161215Z 25004KT 17/15 A2998 RMK A01 T01650147  RH  091%=      5-min Rain = 0
KGDS 161220Z 34004KT 17/15 A2998 RMK A01 T01680149  RH  090%=      5-min Rain = 0
KGDS 161225Z 33006KT 17/15 A2998 RMK A01 T01690149  RH  090%=      5-min Rain = 0
KGDS 161230Z 35005KT 17/15 A2999 RMK A01 T01710150  RH  089%=      5-min Rain = 0
KGDS 161235Z 01006KT 17/15 A2999 RMK A01 T01710150  RH  089%=      5-min Rain = 0
KGDS 161240Z 00007G13KT 17/15 A2999 RMK A01 T01720151  RH  089%=      5-min Rain = 0
KGDS 161245Z 36006KT 17/15 A2999 RMK A01 T01720151  RH  089%=      5-min Rain = 0
KGDS 161250Z 35005KT 18/15 A2999 RMK A01 T01750153  RH  089%=      5-min Rain = 0
KGDS 161255Z 00008KT 18/15 A30 RMK A01 T01780153  RH  087%=      5-min Rain = 0
KGDS 161300Z 35009KT 18/15 A3001 RMK A01 T01780152  RH  087%=      5-min Rain = 0
KGDS 161305Z 34009KT 18/15 A3002 RMK A01 T01790152  RH  086%=      5-min Rain = 0
KGDS 161310Z 33008KT 18/15 A3002 RMK A01 T01800152  RH  085%=      5-min Rain = 0
KGDS 161315Z 33004KT 18/15 A3002 RMK A01 T01790152  RH  086%=      5-min Rain = 0.01
KGDS 161320Z 33004KT 18/15 A3002 RMK A01 T01780152  RH  087%=      5-min Rain = 0.02
KGDS 161325Z 34005KT 18/15 A3002 RMK A01 T01780153  RH  087%=      5-min Rain = 0
KGDS 161330Z 36004KT 18/15 A3003 RMK A01 T01770153  RH  088%=      5-min Rain = 0.01
KGDS 161335Z 34002KT 18/15 A3002 RMK A01 T01770153  RH  088%=      5-min Rain = 0
KGDS 161340Z 28002KT 18/16 A3003 RMK A01 T01780155  RH  088%=      5-min Rain = 0
KGDS 161345Z 18001KT 18/16 A3003 RMK A01 T01790157  RH  089%=      5-min Rain = 0
KGDS 161350Z 28003KT 18/16 A3004 RMK A01 T01790156  RH  088%=      5-min Rain = 0
KGDS 161355Z 27004KT 18/16 A3005 RMK A01 T01790157  RH  088%=      5-min Rain = 0
KGDS 161400Z 25004KT 18/16 A3004 RMK A01 T01790156  RH  088%=      5-min Rain = 0
KGDS 161405Z 27004KT 18/16 A3005 RMK A01 T01780157  RH  089%=      5-min Rain = 0
KGDS 161410Z 29004KT 18/16 A3005 RMK A01 T01780157  RH  090%=      5-min Rain = 0
KGDS 161415Z 29005KT 18/16 A3006 RMK A01 T01780158  RH  090%=      5-min Rain = 0
KGDS 161420Z 28005KT 18/16 A3005 RMK A01 T01780157  RH  090%=      5-min Rain = 0
KGDS 161425Z 25003KT 18/16 A3004 RMK A01 T01780157  RH  090%=      5-min Rain = 0
KGDS 161430Z 33002KT 18/16 A3004 RMK A01 T01780157  RH  090%=      5-min Rain = 0
KGDS 161435Z 36007KT 18/16 A3004 RMK A01 T01790158  RH  090%=      5-min Rain = 0
KGDS 161440Z 01002KT 18/16 A3003 RMK A01 T01780157  RH  090%=      5-min Rain = 0
KGDS 161445Z 18002KT 18/16 A3003 RMK A01 T01790158  RH  090%=      5-min Rain = 0
KGDS 161450Z 04002KT 18/16 A3004 RMK A01 T01800160  RH  090%=      5-min Rain = 0
KGDS 161455Z 07005KT 18/16 A3002 RMK A01 T01810160  RH  090%=      5-min Rain = 0
KGDS 161500Z 06006KT 18/16 A3002 RMK A01 T01810160  RH  090%=      5-min Rain = 0
KGDS 161505Z 07003KT 18/16 A3002 RMK A01 T01800159  RH  089%=      5-min Rain = 0
KGDS 161510Z 06003KT 18/16 A3003 RMK A01 T01800159  RH  089%=      5-min Rain = 0
KGDS 161515Z 33004KT 18/16 A3004 RMK A01 T01810160  RH  089%=      5-min Rain = 0
KGDS 161520Z 33001KT 18/16 A3003 RMK A01 T01820160  RH  089%=      5-min Rain = 0
KGDS 161525Z 32009KT 18/16 A3005 RMK A01 T01820161  RH  090%=      5-min Rain = 0
KGDS 161530Z 29008KT 18/16 A3006 RMK A01 T01810162  RH  090%=      5-min Rain = 0
KGDS 161535Z 28009KT 18/16 A3007 RMK A01 T01810161  RH  091%=      5-min Rain = 0
KGDS 161540Z 27005KT 18/16 A3006 RMK A01 T01800161  RH  091%=      5-min Rain = 0
KGDS 161545Z 27004KT 18/16 A3006 RMK A01 T01800161  RH  091%=      5-min Rain = 0
KGDS 161550Z 23003KT 18/16 A3005 RMK A01 T01800161  RH  091%=      5-min Rain = 0
KGDS 161555Z 26007KT 18/16 A3007 RMK A01 T01810162  RH  091%=      5-min Rain = 0
KGDS 161600Z 24003KT 18/16 A3005 RMK A01 T01810162  RH  091%=      5-min Rain = 0
KGDS 161605Z 20002KT 18/16 A3004 RMK A01 T01810162  RH  091%=      5-min Rain = 0
KGDS 161610Z 18004KT 18/16 A3004 RMK A01 T01810162  RH  091%=      5-min Rain = 0
KGDS 161615Z 17007KT 18/16 A3001 RMK A01 T01820163  RH  091%=      5-min Rain = 0
KGDS 161620Z 15004KT 18/16 A3002 RMK A01 T01830164  RH  091%=      5-min Rain = 0
KGDS 161625Z 01005G10KT 19/17 A3003 RMK A01 T01870168  RH  091%=      5-min Rain = 0
KGDS 161630Z 00007KT 19/17 A3005 RMK A01 T01910172  RH  091%=      5-min Rain = 0
KGDS 161635Z 35010KT 19/17 A3006 RMK A01 T01920170  RH  089%=      5-min Rain = 0
KGDS 161640Z 34006KT 19/17 A3005 RMK A01 T01910167  RH  088%=      5-min Rain = 0
KGDS 161645Z 01005KT 19/17 A3005 RMK A01 T01920168  RH  088%=      5-min Rain = 0
KGDS 161650Z 13004KT 19/17 A3004 RMK A01 T01930167  RH  087%=      5-min Rain = 0
KGDS 161655Z 02002KT 20/17 A3004 RMK A01 T01960169  RH  086%=      5-min Rain = 0
KGDS 161700Z 07004G10KT 20/17 A3004 RMK A01 T01970168  RH  086%=      5-min Rain = 0
KGDS 161705Z 11008KT 20/17 A3002 RMK A01 T01970168  RH  085%=      5-min Rain = 0
KGDS 161710Z 15004KT 20/17 A3002 RMK A01 T01970166  RH  084%=      5-min Rain = 0
KGDS 161715Z 06004G10KT 20/17 A3003 RMK A01 T01990166  RH  083%=      5-min Rain = 0
KGDS 161720Z 08007KT 20/17 A3002 RMK A01 T02010167  RH  082%=      5-min Rain = 0
KGDS 161725Z 32008KT 20/17 A3003 RMK A01 T02020167  RH  083%=      5-min Rain = 0
KGDS 161730Z 00004KT 20/17 A3002 RMK A01 T02000166  RH  083%=      5-min Rain = 0
KGDS 161735Z 35003G8KT 20/17 A3002 RMK A01 T01990166  RH  083%=      5-min Rain = 0
KGDS 161740Z 35007KT 20/17 A3002 RMK A01 T01990167  RH  083%=      5-min Rain = 0
KGDS 161745Z 35007KT 20/17 A3002 RMK A01 T01980167  RH  084%=      5-min Rain = 0
KGDS 161750Z 35007KT 20/17 A3002 RMK A01 T01990166  RH  083%=      5-min Rain = 0
KGDS 161755Z 01005KT 20/17 A3001 RMK A01 T02010169  RH  084%=      5-min Rain = 0
KGDS 161800Z 02008KT 21/17 A3001 RMK A01 T02080170  RH  081%=      5-min Rain = 0
KGDS 161805Z 03008KT 21/17 A3001 RMK A01 T02140168  RH  077%=      5-min Rain = 0
KGDS 161810Z 01009KT 22/17 A3001 RMK A01 T02190165  RH  073%=      5-min Rain = 0
KGDS 161815Z 02010KT 22/17 A30 RMK A01 T02240169  RH  073%=      5-min Rain = 0
KGDS 161820Z 03009KT 23/17 A30 RMK A01 T02280168  RH  071%=      5-min Rain = 0
KGDS 161825Z 01010KT 23/17 A30 RMK A01 T02330165  RH  067%=      5-min Rain = 0
KGDS 161830Z 00009KT 24/16 A2999 RMK A01 T02360158  RH  063%=      5-min Rain = 0
KGDS 161835Z 01009KT 24/16 A2999 RMK A01 T02400157  RH  061%=      5-min Rain = 0
KGDS 161840Z 02008KT 25/16 A2999 RMK A01 T02470159  RH  059%=      5-min Rain = 0
KGDS 161845Z 02007KT 25/15 A2998 RMK A01 T02450153  RH  058%=      5-min Rain = 0
KGDS 161850Z 36005KT 25/15 A2998 RMK A01 T02490150  RH  055%=      5-min Rain = 0
KGDS 161855Z 05005KT 25/15 A2998 RMK A01 T02510147  RH  053%=      5-min Rain = 0
KGDS 161900Z 04005KT 25/15 A2998 RMK A01 T02530149  RH  054%=      5-min Rain = 0
KGDS 161905Z 03006KT 26/15 A2998 RMK A01 T02550153  RH  054%=      5-min Rain = 0
KGDS 161910Z 05005KT 26/15 A2998 RMK A01 T02600153  RH  053%=      5-min Rain = 0
KGDS 161915Z 04005KT 26/15 A2998 RMK A01 T02610149  RH  051%=      5-min Rain = 0
KGDS 161920Z 08004KT 26/15 A2998 RMK A01 T02580145  RH  051%=      5-min Rain = 0
KGDS 161925Z 03004KT 26/14 A2998 RMK A01 T02600144  RH  050%=      5-min Rain = 0
KGDS 161930Z 06002KT 26/14 A2997 RMK A01 T02640144  RH  049%=      5-min Rain = 0
KGDS 161935Z 35004KT 27/14 A2997 RMK A01 T02670136  RH  045%=      5-min Rain = 0
KGDS 161940Z 04004KT 27/14 A2997 RMK A01 T02660141  RH  047%=      5-min Rain = 0
KGDS 161945Z 05003G8KT 27/14 A2997 RMK A01 T02710140  RH  046%=      5-min Rain = 0
KGDS 161950Z 02004KT 28/14 A2996 RMK A01 T02760139  RH  044%=      5-min Rain = 0
KGDS 161955Z 01004KT 28/14 A2996 RMK A01 T02830135  RH  041%=      5-min Rain = 0
KGDS 162000Z 31005KT 28/12 A2996 RMK A01 T02830122  RH  038%=      5-min Rain = 0
KGDS 162005Z 35006KT 28/12 A2996 RMK A01 T02840120  RH  037%=      5-min Rain = 0
KGDS 162010Z 01005KT 28/12 A2996 RMK A01 T02830115  RH  036%=      5-min Rain = 0
KGDS 162015Z 34003G9KT 28/11 A2995 RMK A01 T02830111  RH  035%=      5-min Rain = 0
KGDS 162020Z 01006KT 29/14 A2995 RMK A01 T02850144  RH  043%=      5-min Rain = 0
KGDS 162025Z 00005KT 28/14 A2995 RMK A01 T02810139  RH  043%=      5-min Rain = 0
KGDS 162030Z 03004KT 28/15 A2995 RMK A01 T02810145  RH  044%=      5-min Rain = 0
KGDS 162035Z 05006KT 28/15 A2995 RMK A01 T02800152  RH  047%=      5-min Rain = 0
KGDS 162040Z 04002KT 28/15 A2995 RMK A01 T02800150  RH  046%=      5-min Rain = 0
KGDS 162045Z 08003KT 28/15 A2994 RMK A01 T02820152  RH  046%=      5-min Rain = 0
KGDS 162050Z 11003KT 28/15 A2994 RMK A01 T02830153  RH  046%=      5-min Rain = 0
KGDS 162055Z 13004KT 29/15 A2994 RMK A01 T02880151  RH  044%=      5-min Rain = 0
KGDS 162100Z 06003KT 29/15 A2994 RMK A01 T02910151  RH  043%=      5-min Rain = 0
KGDS 162105Z 06006KT 29/15 A2994 RMK A01 T02890148  RH  043%=      5-min Rain = 0
KGDS 162110Z 06004KT 29/15 A2994 RMK A01 T02880145  RH  043%=      5-min Rain = 0
KGDS 162115Z 04007KT 29/14 A2994 RMK A01 T02870144  RH  043%=      5-min Rain = 0
KGDS 162120Z 03005KT 29/14 A2994 RMK A01 T02920141  RH  041%=      5-min Rain = 0
KGDS 162125Z 02005KT 29/14 A2994 RMK A01 T02910135  RH  039%=      5-min Rain = 0
KGDS 162130Z 04007KT 29/14 A2993 RMK A01 T02930143  RH  041%=      5-min Rain = 0
KGDS 162135Z 05006KT 29/14 A2993 RMK A01 T02940144  RH  041%=      5-min Rain = 0
KGDS 162140Z 01005KT 29/14 A2993 RMK A01 T02940136  RH  039%=      5-min Rain = 0
KGDS 162145Z 36004KT 30/14 A2993 RMK A01 T02960141  RH  040%=      5-min Rain = 0
KGDS 162150Z 01004KT 30/13 A2993 RMK A01 T02980129  RH  036%=      5-min Rain = 0
KGDS 162155Z 01005KT 30/13 A2993 RMK A01 T02970126  RH  036%=      5-min Rain = 0
KGDS 162200Z 04006KT 30/13 A2993 RMK A01 T02960127  RH  036%=      5-min Rain = 0
KGDS 162205Z 03002G7KT 30/13 A2993 RMK A01 T02950128  RH  037%=      5-min Rain = 0
KGDS 162210Z 05004KT 30/13 A2993 RMK A01 T02960131  RH  037%=      5-min Rain = 0
KGDS 162215Z 07007KT 30/13 A2992 RMK A01 T02990128  RH  036%=      5-min Rain = 0
KGDS 162220Z 10005KT 30/13 A2992 RMK A01 T02970127  RH  036%=      5-min Rain = 0
KGDS 162225Z 04006KT 30/13 A2992 RMK A01 T02980125  RH  035%=      5-min Rain = 0
KGDS 162230Z 01005KT 30/12 A2992 RMK A01 T02990118  RH  033%=      5-min Rain = 0
KGDS 162235Z 01003KT 30/12 A2992 RMK A01 T02970116  RH  033%=      5-min Rain = 0
KGDS 162240Z 03004G10KT 30/12 A2992 RMK A01 T03010117  RH  033%=      5-min Rain = 0
KGDS 162245Z 02005KT 30/12 A2992 RMK A01 T03010117  RH  033%=      5-min Rain = 0
KGDS 162250Z 00005KT 30/11 A2992 RMK A01 T03010114  RH  032%=      5-min Rain = 0
KGDS 162255Z 02005KT 30/11 A2992 RMK A01 T03000113  RH  032%=      5-min Rain = 0
KGDS 162300Z 04006KT 30/11 A2992 RMK A01 T03000114  RH  032%=      5-min Rain = 0
KGDS 162305Z 02005KT 30/11 A2992 RMK A01 T02990114  RH  033%=      5-min Rain = 0
KGDS 162310Z 04007G13KT 30/12 A2992 RMK A01 T02990117  RH  033%=      5-min Rain = 0
KGDS 162315Z 06005KT 30/12 A2991 RMK A01 T02970116  RH  033%=      5-min Rain = 0
KGDS 162320Z 07005KT 30/12 A2991 RMK A01 T02980117  RH  033%=      5-min Rain = 0
KGDS 162325Z 05007KT 30/12 A2991 RMK A01 T02990117  RH  033%=      5-min Rain = 0
KGDS 162330Z 05007KT 30/12 A2991 RMK A01 T02980115  RH  033%=      5-min Rain = 0
KGDS 162335Z 04005KT 30/11 A2991 RMK A01 T02960112  RH  033%=      5-min Rain = 0
KGDS 162340Z 05006KT 30/11 A2991 RMK A01 T02950112  RH  033%=      5-min Rain = 0
KGDS 162345Z 06006KT 30/11 A2991 RMK A01 T02950111  RH  033%=      5-min Rain = 0
KGDS 162350Z 05006KT 30/11 A2991 RMK A01 T02950111  RH  032%=      5-min Rain = 0
KGDS 162355Z 06005KT 30/11 A2991 RMK A01 T02950108  RH  032%=      5-min Rain = 0
KGDS 170000Z 07005KT 30/11 A299 RMK A01 T02950110  RH  032%=      5-min Rain = 0
KGDS 170005Z 07005KT 30/11 A299 RMK A01 T02950109  RH  032%=      5-min Rain = 0
KGDS 170010Z 11004KT 30/11 A299 RMK A01 T02970108  RH  032%=      5-min Rain = 0
KGDS 170015Z 09004KT 30/11 A299 RMK A01 T02960108  RH  032%=      5-min Rain = 0
KGDS 170020Z 07005KT 30/11 A299 RMK A01 T02960108  RH  032%=      5-min Rain = 0
KGDS 170025Z 09006KT 30/11 A299 RMK A01 T02950108  RH  032%=      5-min Rain = 0
KGDS 170030Z 06006KT 29/11 A299 RMK A01 T02940108  RH  032%=      5-min Rain = 0
KGDS 170035Z 06006KT 29/11 A299 RMK A01 T02930108  RH  032%=      5-min Rain = 0
KGDS 170040Z 07006KT 29/11 A299 RMK A01 T02920112  RH  033%=      5-min Rain = 0
KGDS 170045Z 07005KT 29/12 A299 RMK A01 T02910116  RH  034%=      5-min Rain = 0
KGDS 170050Z 08004KT 29/12 A299 RMK A01 T02910118  RH  035%=      5-min Rain = 0
KGDS 170055Z 09009KT 29/13 A299 RMK A01 T02880126  RH  038%=      5-min Rain = 0
KGDS 170100Z 10009KT 28/13 A299 RMK A01 T02830132  RH  040%=      5-min Rain = 0
KGDS 170105Z 10010KT 28/13 A299 RMK A01 T02800129  RH  040%=      5-min Rain = 0
KGDS 170110Z 10009KT 28/13 A299 RMK A01 T02770130  RH  041%=      5-min Rain = 0
KGDS 170115Z 09008KT 27/13 A299 RMK A01 T02730132  RH  043%=      5-min Rain = 0
KGDS 170120Z 09008KT 27/13 A299 RMK A01 T02700132  RH  043%=      5-min Rain = 0
KGDS 170125Z 09008KT 27/13 A299 RMK A01 T02660134  RH  045%=      5-min Rain = 0
KGDS 170130Z 09009KT 26/14 A299 RMK A01 T02630136  RH  046%=      5-min Rain = 0
KGDS 170135Z 09008KT 26/14 A2991 RMK A01 T02600139  RH  048%=      5-min Rain = 0
KGDS 170140Z 09008KT 26/14 A299 RMK A01 T02570141  RH  050%=      5-min Rain = 0
KGDS 170145Z 10008KT 25/14 A299 RMK A01 T02540143  RH  051%=      5-min Rain = 0
KGDS 170150Z 10008KT 25/14 A2991 RMK A01 T02510144  RH  052%=      5-min Rain = 0
KGDS 170155Z 10007KT 25/15 A2991 RMK A01 T02500145  RH  053%=      5-min Rain = 0
KGDS 170200Z 10007KT 25/15 A2991 RMK A01 T02470146  RH  054%=      5-min Rain = 0
KGDS 170205Z 10008KT 25/15 A2991 RMK A01 T02450146  RH  055%=      5-min Rain = 0
KGDS 170210Z 10008KT 24/15 A2991 RMK A01 T02440146  RH  055%=      5-min Rain = 0
KGDS 170215Z 10008KT 24/15 A2991 RMK A01 T02430147  RH  056%=      5-min Rain = 0
KGDS 170220Z 11007KT 24/15 A2991 RMK A01 T02410148  RH  057%=      5-min Rain = 0
KGDS 170225Z 11007KT 24/15 A2992 RMK A01 T02380148  RH  058%=      5-min Rain = 0
KGDS 170230Z 11008KT 24/15 A2992 RMK A01 T02370149  RH  059%=      5-min Rain = 0
KGDS 170235Z 11007KT 24/15 A2992 RMK A01 T02370151  RH  060%=      5-min Rain = 0
KGDS 170240Z 11007KT 23/15 A2992 RMK A01 T02340153  RH  061%=      5-min Rain = 0
KGDS 170245Z 11007KT 23/15 A2992 RMK A01 T02320153  RH  063%=      5-min Rain = 0
KGDS 170250Z 12007KT 23/15 A2992 RMK A01 T02300154  RH  064%=      5-min Rain = 0
KGDS 170255Z 12007KT 23/15 A2992 RMK A01 T02290154  RH  064%=      5-min Rain = 0
KGDS 170300Z 13007KT 23/15 A2992 RMK A01 T02270154  RH  065%=      5-min Rain = 0
KGDS 170305Z 13007KT 22/15 A2992 RMK A01 T02240154  RH  066%=      5-min Rain = 0
KGDS 170310Z 14008KT 22/15 A2992 RMK A01 T02230154  RH  067%=      5-min Rain = 0
KGDS 170315Z 15007KT 22/15 A2992 RMK A01 T02220154  RH  067%=      5-min Rain = 0
KGDS 170320Z 15007KT 22/15 A2992 RMK A01 T02220154  RH  067%=      5-min Rain = 0
KGDS 170325Z 14007KT 22/15 A2992 RMK A01 T02230153  RH  066%=      5-min Rain = 0
KGDS 170330Z 14007KT 22/15 A2992 RMK A01 T02240153  RH  066%=      5-min Rain = 0
KGDS 170335Z 14007KT 22/15 A2992 RMK A01 T02240152  RH  065%=      5-min Rain = 0
KGDS 170340Z 13007KT 23/15 A2993 RMK A01 T02260152  RH  064%=      5-min Rain = 0
KGDS 170345Z 10006KT 22/15 A2993 RMK A01 T02230152  RH  066%=      5-min Rain = 0
KGDS 170350Z 11007KT 22/15 A2993 RMK A01 T02210153  RH  066%=      5-min Rain = 0
KGDS 170355Z 12007KT 22/15 A2993 RMK A01 T02220152  RH  066%=      5-min Rain = 0
KGDS 170400Z 13007KT 22/15 A2993 RMK A01 T02200152  RH  067%=      5-min Rain = 0
KGDS 170405Z 13007KT 22/15 A2993 RMK A01 T02190152  RH  067%=      5-min Rain = 0
KGDS 170410Z 13006KT 22/15 A2992 RMK A01 T02180151  RH  067%=      5-min Rain = 0
KGDS 170415Z 14007KT 22/15 A2992 RMK A01 T02160151  RH  068%=      5-min Rain = 0
KGDS 170420Z 14006KT 22/15 A2992 RMK A01 T02150151  RH  068%=      5-min Rain = 0
KGDS 170425Z 14007KT 22/15 A2992 RMK A01 T02150151  RH  068%=      5-min Rain = 0
KGDS 170430Z 14008KT 21/15 A2992 RMK A01 T02130151  RH  069%=      5-min Rain = 0
KGDS 170435Z 15008KT 21/15 A2992 RMK A01 T02120151  RH  070%=      5-min Rain = 0
KGDS 170440Z 15008KT 21/15 A2992 RMK A01 T02110150  RH  070%=      5-min Rain = 0
KGDS 170445Z 15008KT 21/15 A2992 RMK A01 T02110150  RH  070%=      5-min Rain = 0
KGDS 170450Z 16009KT 21/15 A2992 RMK A01 T02120150  RH  069%=      5-min Rain = 0
KGDS 170455Z 15009KT 21/15 A2992 RMK A01 T02130151  RH  069%=      5-min Rain = 0

Page generated in 0.0127 seconds.